TimeCST,TemperatureF,Dew PointF,Humidity,Sea Level PressureIn,VisibilityMPH,Wind Direction,Wind SpeedMPH,Gust SpeedMPH,PrecipitationIn,Events,Conditions,WindDirDegrees,DateUTC
12:14 AM,19.4,12.2,74,29.95,10.0,West,15.0,-,N/A,,Mostly Cloudy,260,2012-11-12 06:14:00
12:33 AM,19.4,12.2,74,29.95,10.0,West,17.3,-,N/A,,Scattered Clouds,270,2012-11-12 06:33:00
12:54 AM,19.4,12.2,74,29.95,10.0,West,16.1,21.9,N/A,,Clear,270,2012-11-12 06:54:00
1:14 AM,19.4,12.2,74,29.95,10.0,West,13.8,-,N/A,,Clear,270,2012-11-12 07:14:00
1:33 AM,19.4,14.0,80,29.95,10.0,West,12.7,17.3,N/A,,Clear,270,2012-11-12 07:33:00
1:54 AM,21.2,14.0,74,29.95,10.0,West,18.4,-,N/A,,Scattered Clouds,280,2012-11-12 07:54:00
2:14 AM,21.2,14.0,74,29.95,10.0,WNW,20.7,26.5,N/A,,Scattered Clouds,290,2012-11-12 08:14:00
2:33 AM,21.2,14.0,74,29.95,4.0,West,19.6,-,N/A,Snow,Light Snow,280,2012-11-12 08:33:00
2:54 AM,21.2,14.0,74,29.95,4.0,WNW,20.7,26.5,N/A,Snow,Light Snow,290,2012-11-12 08:54:00
3:14 AM,21.2,14.0,74,29.95,10.0,West,20.7,-,N/A,,Mostly Cloudy,280,2012-11-12 09:14:00
3:33 AM,21.2,14.0,74,29.95,5.0,West,20.7,26.5,N/A,Snow,Light Snow,280,2012-11-12 09:33:00
3:54 AM,21.2,15.8,80,29.96,5.0,West,17.3,-,N/A,Snow,Light Snow,280,2012-11-12 09:54:00
4:14 AM,21.2,15.8,80,29.96,7.0,WNW,16.1,23.0,N/A,Snow,Light Snow,290,2012-11-12 10:14:00
4:33 AM,21.2,15.8,80,29.96,4.0,WNW,18.4,-,N/A,Snow,Light Snow,290,2012-11-12 10:33:00
4:53 AM,21.2,15.8,80,29.97,4.0,WNW,19.6,-,N/A,Snow,Light Snow,290,2012-11-12 10:53:00
5:14 AM,21.2,15.8,80,29.97,5.0,WNW,18.4,-,N/A,Snow,Light Snow,290,2012-11-12 11:14:00
5:33 AM,21.2,15.8,80,29.98,4.0,West,17.3,24.2,N/A,Snow,Light Snow,280,2012-11-12 11:33:00
5:53 AM,19.4,15.8,86,29.98,5.0,WNW,19.6,24.2,N/A,Snow,Light Snow,290,2012-11-12 11:53:00
6:14 AM,19.4,14.0,80,29.98,10.0,WNW,21.9,26.5,N/A,,Overcast,290,2012-11-12 12:14:00
6:34 AM,19.4,12.2,74,29.99,10.0,WNW,19.6,25.3,N/A,,Overcast,290,2012-11-12 12:34:00
6:53 AM,19.4,12.2,74,30.00,10.0,WNW,16.1,-,N/A,,Mostly Cloudy,290,2012-11-12 12:53:00
7:14 AM,19.4,12.2,74,30.01,10.0,West,13.8,-,N/A,,Overcast,280,2012-11-12 13:14:00
7:33 AM,17.6,12.2,79,30.02,10.0,West,15.0,20.7,N/A,,Overcast,280,2012-11-12 13:33:00
7:54 AM,17.6,12.2,79,30.03,10.0,WNW,16.1,-,N/A,,Overcast,290,2012-11-12 13:54:00
8:14 AM,17.6,12.2,79,30.04,10.0,WNW,15.0,-,N/A,,Overcast,290,2012-11-12 14:14:00
8:33 AM,19.4,12.2,74,30.05,10.0,WNW,18.4,23.0,N/A,,Overcast,290,2012-11-12 14:33:00
8:54 AM,19.4,10.4,68,30.06,10.0,WNW,21.9,28.8,N/A,,Overcast,300,2012-11-12 14:54:00
9:14 AM,19.4,10.4,68,30.06,10.0,WNW,20.7,24.2,N/A,,Mostly Cloudy,300,2012-11-12 15:14:00
9:33 AM,19.4,10.4,68,30.07,10.0,WNW,17.3,25.3,N/A,,Mostly Cloudy,300,2012-11-12 15:33:00
9:54 AM,19.4,10.4,68,30.07,10.0,WNW,23.0,-,N/A,,Scattered Clouds,290,2012-11-12 15:54:00
10:13 AM,19.4,10.4,68,30.08,10.0,WNW,21.9,25.3,N/A,,Scattered Clouds,290,2012-11-12 16:13:00
10:34 AM,21.2,10.4,63,30.09,10.0,WNW,23.0,31.1,N/A,,Scattered Clouds,290,2012-11-12 16:34:00
10:54 AM,21.2,10.4,63,30.10,10.0,WNW,19.6,29.9,N/A,,Scattered Clouds,290,2012-11-12 16:54:00
11:13 AM,21.2,10.4,63,30.11,10.0,WNW,18.4,25.3,N/A,,Scattered Clouds,300,2012-11-12 17:13:00
11:34 AM,23.0,10.4,59,30.11,10.0,WNW,20.7,26.5,N/A,,Clear,290,2012-11-12 17:34:00
11:54 AM,23.0,10.4,59,30.11,10.0,WNW,18.4,24.2,N/A,,Clear,290,2012-11-12 17:54:00
12:13 PM,24.8,10.4,54,30.11,10.0,WNW,18.4,25.3,N/A,,Scattered Clouds,300,2012-11-12 18:13:00
12:34 PM,24.8,12.2,59,30.12,10.0,WNW,17.3,25.3,N/A,,Scattered Clouds,300,2012-11-12 18:34:00
12:54 PM,26.6,12.2,55,30.12,10.0,NW,18.4,23.0,N/A,,Scattered Clouds,310,2012-11-12 18:54:00
1:13 PM,26.6,12.2,55,30.13,10.0,NW,15.0,21.9,N/A,,Scattered Clouds,310,2012-11-12 19:13:00
1:34 PM,24.8,12.2,59,30.13,10.0,NW,16.1,24.2,N/A,,Mostly Cloudy,310,2012-11-12 19:34:00
1:54 PM,26.6,12.2,55,30.14,10.0,NW,17.3,-,N/A,,Mostly Cloudy,310,2012-11-12 19:54:00
2:13 PM,26.6,12.2,55,30.14,10.0,WNW,13.8,19.6,N/A,,Scattered Clouds,300,2012-11-12 20:13:00
2:34 PM,28.4,14.0,55,30.14,10.0,WNW,18.4,23.0,N/A,,Scattered Clouds,300,2012-11-12 20:34:00
2:54 PM,28.4,14.0,55,30.15,10.0,WNW,18.4,21.9,N/A,,Clear,300,2012-11-12 20:54:00
3:13 PM,28.4,15.8,59,30.15,10.0,WNW,16.1,21.9,N/A,,Clear,300,2012-11-12 21:13:00
3:34 PM,28.4,14.0,55,30.16,10.0,WNW,19.6,24.2,N/A,,Clear,290,2012-11-12 21:34:00
3:54 PM,28.4,14.0,55,30.17,10.0,WNW,20.7,25.3,N/A,,Clear,290,2012-11-12 21:54:00
4:34 PM,26.6,14.0,59,30.19,10.0,West,11.5,-,N/A,,Clear,280,2012-11-12 22:34:00
4:54 PM,26.6,12.2,55,30.20,10.0,West,12.7,18.4,N/A,,Clear,280,2012-11-12 22:54:00
5:13 PM,24.8,12.2,59,30.21,10.0,West,10.4,-,N/A,,Clear,280,2012-11-12 23:13:00
5:34 PM,23.0,12.2,63,30.21,10.0,West,9.2,-,N/A,,Clear,280,2012-11-12 23:34:00
5:54 PM,23.0,12.2,63,30.22,10.0,West,9.2,-,N/A,,Clear,270,2012-11-12 23:54:00
6:13 PM,21.2,12.2,68,30.23,10.0,West,9.2,-,N/A,,Clear,280,2012-11-13 00:13:00
6:34 PM,21.2,12.2,68,30.23,10.0,West,8.1,-,N/A,,Clear,280,2012-11-13 00:34:00
6:54 PM,21.2,12.2,68,30.24,10.0,West,6.9,-,N/A,,Clear,280,2012-11-13 00:54:00
7:13 PM,19.4,12.2,74,30.24,10.0,West,4.6,-,N/A,,Clear,280,2012-11-13 01:13:00
7:34 PM,19.4,12.2,74,30.24,10.0,West,5.8,-,N/A,,Clear,260,2012-11-13 01:34:00
7:54 PM,21.2,12.2,68,30.24,10.0,West,6.9,-,N/A,,Clear,260,2012-11-13 01:54:00
8:34 PM,19.4,12.2,74,30.24,10.0,WSW,4.6,-,N/A,,Clear,240,2012-11-13 02:34:00
8:53 PM,21.2,12.2,68,30.25,10.0,WSW,6.9,-,N/A,,Clear,250,2012-11-13 02:53:00
9:13 PM,21.2,12.2,68,30.26,10.0,WSW,6.9,-,N/A,,Clear,240,2012-11-13 03:13:00
9:34 PM,19.4,12.2,74,30.26,10.0,West,6.9,-,N/A,,Clear,260,2012-11-13 03:34:00
9:53 PM,17.6,12.2,79,30.26,10.0,SW,3.5,-,N/A,,Clear,220,2012-11-13 03:53:00
10:13 PM,19.4,12.2,74,30.27,10.0,WSW,3.5,-,N/A,,Clear,240,2012-11-13 04:13:00
10:34 PM,17.6,12.2,79,30.27,10.0,Calm,Calm,-,N/A,,Clear,0,2012-11-13 04:34:00
10:53 PM,17.6,12.2,79,30.27,10.0,Calm,Calm,-,N/A,,Clear,0,2012-11-13 04:53:00
11:13 PM,19.4,12.2,74,30.27,10.0,Calm,Calm,-,N/A,,Clear,0,2012-11-13 05:13:00
11:34 PM,15.8,10.4,79,30.26,10.0,Calm,Calm,-,N/A,,Clear,0,2012-11-13 05:34:00
11:53 PM,15.8,10.4,79,30.26,10.0,South,5.8,-,N/A,,Clear,180,2012-11-13 05:53:00